sensor_id;sensor_type;location;lat;lon;timestamp;P1;durP1;ratioP1;P2;durP2;ratioP2
20101;SDS011;10210;52.284;9.892;2023-08-30T00:00:49;4.93;;;2.10;;
20101;SDS011;10210;52.284;9.892;2023-08-30T00:03:15;5.27;;;2.33;;
20101;SDS011;10210;52.284;9.892;2023-08-30T00:05:40;4.73;;;2.40;;
20101;SDS011;10210;52.284;9.892;2023-08-30T00:08:07;6.30;;;2.30;;
20101;SDS011;10210;52.284;9.892;2023-08-30T00:10:34;6.30;;;2.17;;
20101;SDS011;10210;52.284;9.892;2023-08-30T00:13:00;4.37;;;2.33;;
20101;SDS011;10210;52.284;9.892;2023-08-30T00:15:25;6.13;;;2.33;;
20101;SDS011;10210;52.284;9.892;2023-08-30T00:17:52;7.33;;;2.13;;
20101;SDS011;10210;52.284;9.892;2023-08-30T00:20:18;4.40;;;2.00;;
20101;SDS011;10210;52.284;9.892;2023-08-30T00:22:45;4.63;;;2.20;;
20101;SDS011;10210;52.284;9.892;2023-08-30T00:25:13;5.17;;;2.30;;
20101;SDS011;10210;52.284;9.892;2023-08-30T00:27:41;5.07;;;2.17;;
20101;SDS011;10210;52.284;9.892;2023-08-30T00:30:06;3.47;;;2.03;;
20101;SDS011;10210;52.284;9.892;2023-08-30T00:32:34;5.77;;;2.30;;
20101;SDS011;10210;52.284;9.892;2023-08-30T00:35:00;6.80;;;2.20;;
20101;SDS011;10210;52.284;9.892;2023-08-30T00:37:27;5.77;;;2.20;;
20101;SDS011;10210;52.284;9.892;2023-08-30T00:39:52;5.10;;;2.20;;
20101;SDS011;10210;52.284;9.892;2023-08-30T00:42:18;5.77;;;2.30;;
20101;SDS011;10210;52.284;9.892;2023-08-30T00:44:43;4.53;;;2.33;;
20101;SDS011;10210;52.284;9.892;2023-08-30T00:47:09;5.03;;;2.30;;
20101;SDS011;10210;52.284;9.892;2023-08-30T00:49:35;4.70;;;2.23;;
20101;SDS011;10210;52.284;9.892;2023-08-30T00:52:06;4.63;;;2.13;;
20101;SDS011;10210;52.284;9.892;2023-08-30T00:54:35;6.10;;;2.30;;
20101;SDS011;10210;52.284;9.892;2023-08-30T00:57:01;5.93;;;2.30;;
20101;SDS011;10210;52.284;9.892;2023-08-30T00:59:27;4.30;;;2.10;;
20101;SDS011;10210;52.284;9.892;2023-08-30T01:01:57;4.53;;;2.10;;
20101;SDS011;10210;52.284;9.892;2023-08-30T01:04:23;6.03;;;2.30;;
20101;SDS011;10210;52.284;9.892;2023-08-30T01:06:50;5.87;;;2.33;;
20101;SDS011;10210;52.284;9.892;2023-08-30T01:09:17;3.93;;;2.30;;
20101;SDS011;10210;52.284;9.892;2023-08-30T01:14:34;4.53;;;2.13;;
20101;SDS011;10210;52.284;9.892;2023-08-30T01:17:21;4.17;;;2.07;;
20101;SDS011;10210;52.284;9.892;2023-08-30T01:20:00;3.93;;;2.07;;
20101;SDS011;10210;52.284;9.892;2023-08-30T01:28:28;4.57;;;2.10;;
20101;SDS011;10210;52.284;9.892;2023-08-30T01:30:58;4.37;;;2.20;;
20101;SDS011;10210;52.284;9.892;2023-08-30T01:33:25;5.67;;;2.50;;
20101;SDS011;10210;52.284;9.892;2023-08-30T01:35:55;5.47;;;2.50;;
20101;SDS011;10210;52.284;9.892;2023-08-30T01:38:24;5.77;;;2.40;;
20101;SDS011;10210;52.284;9.892;2023-08-30T01:40:53;4.03;;;2.17;;
20101;SDS011;10210;52.284;9.892;2023-08-30T01:43:22;4.37;;;2.20;;
20101;SDS011;10210;52.284;9.892;2023-08-30T01:45:49;5.07;;;2.10;;
20101;SDS011;10210;52.284;9.892;2023-08-30T01:48:16;4.17;;;2.07;;
20101;SDS011;10210;52.284;9.892;2023-08-30T01:50:45;5.43;;;2.30;;
20101;SDS011;10210;52.284;9.892;2023-08-30T01:53:11;4.77;;;2.40;;
20101;SDS011;10210;52.284;9.892;2023-08-30T01:55:39;4.30;;;2.20;;
20101;SDS011;10210;52.284;9.892;2023-08-30T01:58:06;6.70;;;2.50;;
20101;SDS011;10210;52.284;9.892;2023-08-30T02:00:32;4.47;;;2.20;;
20101;SDS011;10210;52.284;9.892;2023-08-30T02:02:58;5.63;;;2.47;;
20101;SDS011;10210;52.284;9.892;2023-08-30T02:05:23;5.73;;;2.47;;
20101;SDS011;10210;52.284;9.892;2023-08-30T02:11:00;4.57;;;2.50;;
20101;SDS011;10210;52.284;9.892;2023-08-30T02:13:32;4.63;;;2.17;;
20101;SDS011;10210;52.284;9.892;2023-08-30T02:16:00;5.83;;;2.80;;
20101;SDS011;10210;52.284;9.892;2023-08-30T02:18:27;4.50;;;2.30;;
20101;SDS011;10210;52.284;9.892;2023-08-30T02:20:53;8.20;;;2.70;;
20101;SDS011;10210;52.284;9.892;2023-08-30T02:23:23;5.13;;;2.30;;
20101;SDS011;10210;52.284;9.892;2023-08-30T02:25:51;4.73;;;2.30;;
20101;SDS011;10210;52.284;9.892;2023-08-30T02:28:19;5.17;;;2.40;;
20101;SDS011;10210;52.284;9.892;2023-08-30T02:30:44;6.53;;;2.40;;
20101;SDS011;10210;52.284;9.892;2023-08-30T02:33:10;5.17;;;2.20;;
20101;SDS011;10210;52.284;9.892;2023-08-30T02:35:36;4.53;;;2.57;;
20101;SDS011;10210;52.284;9.892;2023-08-30T02:38:02;4.27;;;2.30;;
20101;SDS011;10210;52.284;9.892;2023-08-30T02:40:30;5.70;;;2.67;;
20101;SDS011;10210;52.284;9.892;2023-08-30T02:42:56;6.00;;;2.60;;
20101;SDS011;10210;52.284;9.892;2023-08-30T02:45:22;5.83;;;2.70;;
20101;SDS011;10210;52.284;9.892;2023-08-30T02:47:48;5.10;;;2.73;;
20101;SDS011;10210;52.284;9.892;2023-08-30T02:50:13;5.83;;;2.80;;
20101;SDS011;10210;52.284;9.892;2023-08-30T02:52:39;5.80;;;2.60;;
20101;SDS011;10210;52.284;9.892;2023-08-30T02:55:05;6.67;;;2.80;;
20101;SDS011;10210;52.284;9.892;2023-08-30T02:57:31;5.73;;;2.70;;
20101;SDS011;10210;52.284;9.892;2023-08-30T02:59:57;4.80;;;2.57;;
20101;SDS011;10210;52.284;9.892;2023-08-30T03:02:22;6.03;;;2.70;;
20101;SDS011;10210;52.284;9.892;2023-08-30T03:04:48;5.67;;;2.40;;
20101;SDS011;10210;52.284;9.892;2023-08-30T03:07:14;6.60;;;2.67;;
20101;SDS011;10210;52.284;9.892;2023-08-30T03:09:40;5.70;;;2.73;;
20101;SDS011;10210;52.284;9.892;2023-08-30T03:12:05;6.40;;;2.80;;
20101;SDS011;10210;52.284;9.892;2023-08-30T03:14:31;5.03;;;2.43;;
20101;SDS011;10210;52.284;9.892;2023-08-30T03:16:57;6.13;;;2.80;;
20101;SDS011;10210;52.284;9.892;2023-08-30T03:19:23;8.13;;;3.10;;
20101;SDS011;10210;52.284;9.892;2023-08-30T03:21:48;6.43;;;3.00;;
20101;SDS011;10210;52.284;9.892;2023-08-30T03:24:14;8.20;;;3.00;;
20101;SDS011;10210;52.284;9.892;2023-08-30T03:26:42;8.17;;;3.00;;
20101;SDS011;10210;52.284;9.892;2023-08-30T03:29:08;5.33;;;2.67;;
20101;SDS011;10210;52.284;9.892;2023-08-30T03:31:34;5.73;;;2.63;;
20101;SDS011;10210;52.284;9.892;2023-08-30T03:34:00;7.27;;;3.20;;
20101;SDS011;10210;52.284;9.892;2023-08-30T03:36:25;7.03;;;3.20;;
20101;SDS011;10210;52.284;9.892;2023-08-30T03:38:53;7.23;;;3.30;;
20101;SDS011;10210;52.284;9.892;2023-08-30T03:41:18;7.37;;;3.60;;
20101;SDS011;10210;52.284;9.892;2023-08-30T03:43:44;6.60;;;3.23;;
20101;SDS011;10210;52.284;9.892;2023-08-30T03:46:10;7.67;;;3.13;;
20101;SDS011;10210;52.284;9.892;2023-08-30T03:48:36;8.17;;;3.10;;
20101;SDS011;10210;52.284;9.892;2023-08-30T03:51:02;7.43;;;3.00;;
20101;SDS011;10210;52.284;9.892;2023-08-30T03:53:28;6.70;;;2.77;;
20101;SDS011;10210;52.284;9.892;2023-08-30T03:55:55;7.93;;;3.00;;
20101;SDS011;10210;52.284;9.892;2023-08-30T03:58:20;7.07;;;2.80;;
20101;SDS011;10210;52.284;9.892;2023-08-30T04:00:46;6.20;;;2.77;;
20101;SDS011;10210;52.284;9.892;2023-08-30T04:03:13;8.43;;;3.30;;
20101;SDS011;10210;52.284;9.892;2023-08-30T04:05:40;6.53;;;3.10;;
20101;SDS011;10210;52.284;9.892;2023-08-30T04:08:07;5.93;;;2.90;;
20101;SDS011;10210;52.284;9.892;2023-08-30T04:10:34;7.93;;;3.07;;
20101;SDS011;10210;52.284;9.892;2023-08-30T04:13:01;8.07;;;3.50;;
20101;SDS011;10210;52.284;9.892;2023-08-30T04:15:28;6.63;;;2.97;;
20101;SDS011;10210;52.284;9.892;2023-08-30T04:17:54;6.03;;;3.13;;
20101;SDS011;10210;52.284;9.892;2023-08-30T04:20:19;7.50;;;3.20;;
20101;SDS011;10210;52.284;9.892;2023-08-30T04:22:45;7.03;;;3.20;;
20101;SDS011;10210;52.284;9.892;2023-08-30T04:25:11;7.33;;;2.93;;
20101;SDS011;10210;52.284;9.892;2023-08-30T04:27:36;7.17;;;3.13;;
20101;SDS011;10210;52.284;9.892;2023-08-30T04:30:02;10.40;;;3.83;;
20101;SDS011;10210;52.284;9.892;2023-08-30T04:32:29;7.90;;;3.63;;
20101;SDS011;10210;52.284;9.892;2023-08-30T04:34:54;8.03;;;3.50;;
20101;SDS011;10210;52.284;9.892;2023-08-30T04:37:20;7.90;;;3.40;;
20101;SDS011;10210;52.284;9.892;2023-08-30T04:39:48;6.90;;;3.20;;
20101;SDS011;10210;52.284;9.892;2023-08-30T04:42:14;8.50;;;3.80;;
20101;SDS011;10210;52.284;9.892;2023-08-30T04:44:40;8.13;;;3.40;;
20101;SDS011;10210;52.284;9.892;2023-08-30T04:47:06;6.13;;;3.20;;
20101;SDS011;10210;52.284;9.892;2023-08-30T04:49:31;9.87;;;3.77;;
20101;SDS011;10210;52.284;9.892;2023-08-30T04:51:57;8.63;;;3.80;;
20101;SDS011;10210;52.284;9.892;2023-08-30T04:54:23;7.83;;;3.67;;
20101;SDS011;10210;52.284;9.892;2023-08-30T04:56:48;10.07;;;3.90;;
20101;SDS011;10210;52.284;9.892;2023-08-30T04:59:14;9.30;;;4.27;;
20101;SDS011;10210;52.284;9.892;2023-08-30T05:01:41;8.90;;;3.90;;
20101;SDS011;10210;52.284;9.892;2023-08-30T05:04:09;9.43;;;3.77;;
20101;SDS011;10210;52.284;9.892;2023-08-30T05:06:35;10.80;;;3.70;;
20101;SDS011;10210;52.284;9.892;2023-08-30T05:09:01;8.90;;;3.83;;
20101;SDS011;10210;52.284;9.892;2023-08-30T05:11:28;8.27;;;3.60;;
20101;SDS011;10210;52.284;9.892;2023-08-30T05:13:54;7.87;;;3.67;;
20101;SDS011;10210;52.284;9.892;2023-08-30T05:16:20;7.93;;;3.77;;
20101;SDS011;10210;52.284;9.892;2023-08-30T05:18:46;10.77;;;4.20;;
20101;SDS011;10210;52.284;9.892;2023-08-30T05:21:14;8.00;;;3.90;;
20101;SDS011;10210;52.284;9.892;2023-08-30T05:23:40;9.43;;;4.10;;
20101;SDS011;10210;52.284;9.892;2023-08-30T05:26:07;9.67;;;3.80;;
20101;SDS011;10210;52.284;9.892;2023-08-30T05:28:34;9.27;;;3.93;;
20101;SDS011;10210;52.284;9.892;2023-08-30T05:31:00;12.03;;;4.20;;
20101;SDS011;10210;52.284;9.892;2023-08-30T05:33:26;10.40;;;4.23;;
20101;SDS011;10210;52.284;9.892;2023-08-30T05:35:51;8.60;;;4.07;;
20101;SDS011;10210;52.284;9.892;2023-08-30T05:38:17;9.53;;;3.73;;
20101;SDS011;10210;52.284;9.892;2023-08-30T05:40:43;10.43;;;4.20;;
20101;SDS011;10210;52.284;9.892;2023-08-30T05:43:10;8.93;;;4.10;;
20101;SDS011;10210;52.284;9.892;2023-08-30T05:45:36;9.50;;;4.17;;
20101;SDS011;10210;52.284;9.892;2023-08-30T05:48:02;10.70;;;3.87;;
20101;SDS011;10210;52.284;9.892;2023-08-30T05:50:28;7.67;;;3.70;;
20101;SDS011;10210;52.284;9.892;2023-08-30T05:52:54;8.40;;;3.60;;
20101;SDS011;10210;52.284;9.892;2023-08-30T05:55:20;8.53;;;3.77;;
20101;SDS011;10210;52.284;9.892;2023-08-30T05:57:46;9.10;;;3.87;;
20101;SDS011;10210;52.284;9.892;2023-08-30T06:00:12;10.93;;;4.13;;
20101;SDS011;10210;52.284;9.892;2023-08-30T06:02:39;8.77;;;4.00;;
20101;SDS011;10210;52.284;9.892;2023-08-30T06:05:06;9.20;;;3.70;;
20101;SDS011;10210;52.284;9.892;2023-08-30T06:07:32;9.00;;;3.63;;
20101;SDS011;10210;52.284;9.892;2023-08-30T06:09:58;7.70;;;3.40;;
20101;SDS011;10210;52.284;9.892;2023-08-30T06:12:24;8.17;;;3.83;;
20101;SDS011;10210;52.284;9.892;2023-08-30T06:14:50;7.87;;;3.63;;
20101;SDS011;10210;52.284;9.892;2023-08-30T06:17:20;10.07;;;4.23;;
20101;SDS011;10210;52.284;9.892;2023-08-30T06:19:46;10.63;;;3.80;;
20101;SDS011;10210;52.284;9.892;2023-08-30T06:22:12;8.37;;;3.70;;
20101;SDS011;10210;52.284;9.892;2023-08-30T06:24:39;8.80;;;3.83;;
20101;SDS011;10210;52.284;9.892;2023-08-30T06:27:04;10.60;;;4.30;;
20101;SDS011;10210;52.284;9.892;2023-08-30T06:29:30;9.70;;;4.40;;
20101;SDS011;10210;52.284;9.892;2023-08-30T06:31:58;8.77;;;3.63;;
20101;SDS011;10210;52.284;9.892;2023-08-30T06:34:24;12.10;;;4.30;;
20101;SDS011;10210;52.284;9.892;2023-08-30T06:36:49;11.30;;;4.17;;
20101;SDS011;10210;52.284;9.892;2023-08-30T06:39:16;10.43;;;4.17;;
20101;SDS011;10210;52.284;9.892;2023-08-30T06:41:42;11.20;;;4.90;;
20101;SDS011;10210;52.284;9.892;2023-08-30T06:44:08;10.53;;;4.40;;
20101;SDS011;10210;52.284;9.892;2023-08-30T06:46:34;11.83;;;4.43;;
20101;SDS011;10210;52.284;9.892;2023-08-30T06:48:59;11.43;;;4.70;;
20101;SDS011;10210;52.284;9.892;2023-08-30T06:51:25;11.60;;;4.93;;
20101;SDS011;10210;52.284;9.892;2023-08-30T06:53:51;9.03;;;4.37;;
20101;SDS011;10210;52.284;9.892;2023-08-30T06:56:16;10.03;;;4.43;;
20101;SDS011;10210;52.284;9.892;2023-08-30T06:58:42;10.00;;;4.27;;
20101;SDS011;10210;52.284;9.892;2023-08-30T07:01:08;10.50;;;4.80;;
20101;SDS011;10210;52.284;9.892;2023-08-30T07:03:33;11.17;;;4.47;;
20101;SDS011;10210;52.284;9.892;2023-08-30T07:05:59;10.87;;;4.57;;
20101;SDS011;10210;52.284;9.892;2023-08-30T07:08:25;10.33;;;4.30;;
20101;SDS011;10210;52.284;9.892;2023-08-30T07:10:51;11.40;;;4.27;;
20101;SDS011;10210;52.284;9.892;2023-08-30T07:13:17;10.50;;;4.17;;
20101;SDS011;10210;52.284;9.892;2023-08-30T07:15:42;10.53;;;4.23;;
20101;SDS011;10210;52.284;9.892;2023-08-30T07:18:08;11.83;;;4.43;;
20101;SDS011;10210;52.284;9.892;2023-08-30T07:20:35;10.00;;;4.43;;
20101;SDS011;10210;52.284;9.892;2023-08-30T07:23:02;11.30;;;4.53;;
20101;SDS011;10210;52.284;9.892;2023-08-30T07:25:31;11.53;;;5.50;;
20101;SDS011;10210;52.284;9.892;2023-08-30T07:27:58;9.90;;;4.40;;
20101;SDS011;10210;52.284;9.892;2023-08-30T07:30:28;10.67;;;4.67;;
20101;SDS011;10210;52.284;9.892;2023-08-30T07:32:54;10.50;;;4.03;;
20101;SDS011;10210;52.284;9.892;2023-08-30T07:35:20;11.70;;;4.40;;
20101;SDS011;10210;52.284;9.892;2023-08-30T07:37:45;11.07;;;4.83;;
20101;SDS011;10210;52.284;9.892;2023-08-30T07:40:12;10.57;;;5.00;;
20101;SDS011;10210;52.284;9.892;2023-08-30T07:42:38;13.10;;;4.90;;
20101;SDS011;10210;52.284;9.892;2023-08-30T07:45:04;10.40;;;4.37;;
20101;SDS011;10210;52.284;9.892;2023-08-30T07:47:30;9.77;;;4.60;;
20101;SDS011;10210;52.284;9.892;2023-08-30T07:49:56;10.33;;;4.70;;
20101;SDS011;10210;52.284;9.892;2023-08-30T07:52:22;10.87;;;4.80;;
20101;SDS011;10210;52.284;9.892;2023-08-30T07:54:47;9.53;;;4.50;;
20101;SDS011;10210;52.284;9.892;2023-08-30T07:57:13;11.17;;;4.50;;
20101;SDS011;10210;52.284;9.892;2023-08-30T07:59:39;12.07;;;4.73;;
20101;SDS011;10210;52.284;9.892;2023-08-30T08:02:05;9.63;;;4.23;;
20101;SDS011;10210;52.284;9.892;2023-08-30T08:04:33;11.07;;;4.70;;
20101;SDS011;10210;52.284;9.892;2023-08-30T08:06:59;10.00;;;4.70;;
20101;SDS011;10210;52.284;9.892;2023-08-30T08:09:25;10.97;;;4.67;;
20101;SDS011;10210;52.284;9.892;2023-08-30T08:11:51;9.27;;;4.20;;
20101;SDS011;10210;52.284;9.892;2023-08-30T08:14:17;10.30;;;4.27;;
20101;SDS011;10210;52.284;9.892;2023-08-30T08:16:43;11.60;;;5.07;;
20101;SDS011;10210;52.284;9.892;2023-08-30T08:19:08;11.33;;;4.77;;
20101;SDS011;10210;52.284;9.892;2023-08-30T08:21:34;11.53;;;5.00;;
20101;SDS011;10210;52.284;9.892;2023-08-30T08:24:00;11.33;;;5.03;;
20101;SDS011;10210;52.284;9.892;2023-08-30T08:26:26;11.47;;;4.63;;
20101;SDS011;10210;52.284;9.892;2023-08-30T08:28:53;11.63;;;5.50;;
20101;SDS011;10210;52.284;9.892;2023-08-30T08:31:20;12.70;;;5.50;;
20101;SDS011;10210;52.284;9.892;2023-08-30T08:33:46;10.20;;;4.60;;
20101;SDS011;10210;52.284;9.892;2023-08-30T08:36:11;11.77;;;5.20;;
20101;SDS011;10210;52.284;9.892;2023-08-30T08:38:38;12.97;;;6.17;;
20101;SDS011;10210;52.284;9.892;2023-08-30T08:41:07;12.20;;;5.50;;
20101;SDS011;10210;52.284;9.892;2023-08-30T08:43:40;13.60;;;5.93;;
20101;SDS011;10210;52.284;9.892;2023-08-30T08:46:08;14.50;;;6.20;;
20101;SDS011;10210;52.284;9.892;2023-08-30T08:48:39;12.73;;;5.87;;
20101;SDS011;10210;52.284;9.892;2023-08-30T08:51:07;11.37;;;5.33;;
20101;SDS011;10210;52.284;9.892;2023-08-30T08:53:34;12.80;;;6.37;;
20101;SDS011;10210;52.284;9.892;2023-08-30T08:56:01;13.00;;;6.23;;
20101;SDS011;10210;52.284;9.892;2023-08-30T08:58:29;13.90;;;7.60;;
20101;SDS011;10210;52.284;9.892;2023-08-30T09:00:55;13.00;;;7.07;;
20101;SDS011;10210;52.284;9.892;2023-08-30T09:03:21;13.17;;;6.70;;
20101;SDS011;10210;52.284;9.892;2023-08-30T09:05:48;13.70;;;7.50;;
20101;SDS011;10210;52.284;9.892;2023-08-30T09:08:15;15.23;;;7.70;;
20101;SDS011;10210;52.284;9.892;2023-08-30T09:10:41;15.23;;;8.13;;
20101;SDS011;10210;52.284;9.892;2023-08-30T09:13:08;14.07;;;8.23;;
20101;SDS011;10210;52.284;9.892;2023-08-30T09:15:33;14.77;;;8.27;;
20101;SDS011;10210;52.284;9.892;2023-08-30T09:18:02;14.40;;;7.63;;
20101;SDS011;10210;52.284;9.892;2023-08-30T09:20:28;14.17;;;7.90;;
20101;SDS011;10210;52.284;9.892;2023-08-30T09:22:54;13.57;;;7.17;;
20101;SDS011;10210;52.284;9.892;2023-08-30T09:25:23;16.43;;;7.40;;
20101;SDS011;10210;52.284;9.892;2023-08-30T09:27:51;13.60;;;7.53;;
20101;SDS011;10210;52.284;9.892;2023-08-30T09:30:23;13.27;;;6.83;;
20101;SDS011;10210;52.284;9.892;2023-08-30T09:32:49;12.37;;;5.50;;
20101;SDS011;10210;52.284;9.892;2023-08-30T09:35:14;13.63;;;6.30;;
20101;SDS011;10210;52.284;9.892;2023-08-30T09:37:40;12.50;;;6.30;;
20101;SDS011;10210;52.284;9.892;2023-08-30T09:40:09;14.23;;;7.37;;
20101;SDS011;10210;52.284;9.892;2023-08-30T09:42:35;12.80;;;6.40;;
20101;SDS011;10210;52.284;9.892;2023-08-30T09:45:21;13.63;;;6.50;;
20101;SDS011;10210;52.284;9.892;2023-08-30T09:47:48;14.17;;;7.87;;
20101;SDS011;10210;52.284;9.892;2023-08-30T09:50:18;14.57;;;6.83;;
20101;SDS011;10210;52.284;9.892;2023-08-30T09:52:49;14.13;;;7.20;;
20101;SDS011;10210;52.284;9.892;2023-08-30T09:55:16;12.67;;;6.77;;
20101;SDS011;10210;52.284;9.892;2023-08-30T09:57:44;13.90;;;6.60;;
20101;SDS011;10210;52.284;9.892;2023-08-30T10:00:10;12.30;;;5.77;;
20101;SDS011;10210;52.284;9.892;2023-08-30T10:02:41;13.47;;;6.73;;
20101;SDS011;10210;52.284;9.892;2023-08-30T10:05:08;13.87;;;7.00;;
20101;SDS011;10210;52.284;9.892;2023-08-30T10:07:38;13.73;;;7.30;;
20101;SDS011;10210;52.284;9.892;2023-08-30T10:10:04;13.47;;;7.03;;
20101;SDS011;10210;52.284;9.892;2023-08-30T10:12:33;13.53;;;6.97;;
20101;SDS011;10210;52.284;9.892;2023-08-30T10:14:59;13.37;;;7.40;;
20101;SDS011;10210;52.284;9.892;2023-08-30T10:17:31;15.00;;;7.50;;
20101;SDS011;10210;52.284;9.892;2023-08-30T10:19:59;15.63;;;7.77;;
20101;SDS011;10210;52.284;9.892;2023-08-30T10:22:30;12.97;;;6.93;;
20101;SDS011;10210;52.284;9.892;2023-08-30T10:25:02;14.70;;;8.53;;
20101;SDS011;10210;52.284;9.892;2023-08-30T10:27:33;14.77;;;7.50;;
20101;SDS011;10210;52.284;9.892;2023-08-30T10:30:04;13.47;;;7.57;;
20101;SDS011;10210;52.284;9.892;2023-08-30T10:32:38;14.67;;;7.47;;
20101;SDS011;10210;52.284;9.892;2023-08-30T10:35:05;14.97;;;7.43;;
20101;SDS011;10210;52.284;9.892;2023-08-30T10:37:31;13.03;;;7.23;;
20101;SDS011;10210;52.284;9.892;2023-08-30T10:40:00;15.13;;;8.03;;
20101;SDS011;10210;52.284;9.892;2023-08-30T10:42:30;14.57;;;7.93;;
20101;SDS011;10210;52.284;9.892;2023-08-30T10:47:28;13.53;;;7.23;;
20101;SDS011;10210;52.284;9.892;2023-08-30T10:49:57;12.53;;;6.53;;
20101;SDS011;10210;52.284;9.892;2023-08-30T10:52:29;13.23;;;7.17;;
20101;SDS011;10210;52.284;9.892;2023-08-30T10:55:08;19.20;;;10.30;;
20101;SDS011;10210;52.284;9.892;2023-08-30T10:57:36;15.33;;;7.80;;
20101;SDS011;10210;52.284;9.892;2023-08-30T11:00:07;14.20;;;7.57;;
20101;SDS011;10210;52.284;9.892;2023-08-30T11:02:34;14.50;;;8.17;;
20101;SDS011;10210;52.284;9.892;2023-08-30T11:05:02;13.97;;;6.87;;
20101;SDS011;10210;52.284;9.892;2023-08-30T11:07:31;14.20;;;7.17;;
20101;SDS011;10210;52.284;9.892;2023-08-30T11:09:58;12.60;;;6.00;;
20101;SDS011;10210;52.284;9.892;2023-08-30T11:12:24;13.43;;;7.10;;
20101;SDS011;10210;52.284;9.892;2023-08-30T11:14:51;13.43;;;6.80;;
20101;SDS011;10210;52.284;9.892;2023-08-30T11:17:20;14.17;;;7.27;;
20101;SDS011;10210;52.284;9.892;2023-08-30T11:19:49;12.87;;;6.63;;
20101;SDS011;10210;52.284;9.892;2023-08-30T11:22:23;13.07;;;6.47;;
20101;SDS011;10210;52.284;9.892;2023-08-30T11:24:49;12.97;;;6.80;;
20101;SDS011;10210;52.284;9.892;2023-08-30T11:27:17;12.20;;;5.87;;
20101;SDS011;10210;52.284;9.892;2023-08-30T11:29:43;12.23;;;6.17;;
20101;SDS011;10210;52.284;9.892;2023-08-30T11:32:09;11.67;;;5.63;;
20101;SDS011;10210;52.284;9.892;2023-08-30T11:34:34;12.87;;;6.57;;
20101;SDS011;10210;52.284;9.892;2023-08-30T11:37:00;12.23;;;6.30;;
20101;SDS011;10210;52.284;9.892;2023-08-30T11:39:28;12.27;;;6.03;;
20101;SDS011;10210;52.284;9.892;2023-08-30T11:41:54;12.47;;;6.00;;
20101;SDS011;10210;52.284;9.892;2023-08-30T11:44:22;11.50;;;5.40;;
20101;SDS011;10210;52.284;9.892;2023-08-30T11:46:56;12.60;;;5.70;;
20101;SDS011;10210;52.284;9.892;2023-08-30T11:49:28;12.10;;;6.23;;
20101;SDS011;10210;52.284;9.892;2023-08-30T11:51:55;13.33;;;5.63;;
20101;SDS011;10210;52.284;9.892;2023-08-30T11:54:23;13.70;;;6.20;;
20101;SDS011;10210;52.284;9.892;2023-08-30T11:56:50;13.97;;;6.27;;
20101;SDS011;10210;52.284;9.892;2023-08-30T11:59:19;12.70;;;6.20;;
20101;SDS011;10210;52.284;9.892;2023-08-30T12:01:49;13.23;;;6.10;;
20101;SDS011;10210;52.284;9.892;2023-08-30T12:04:17;12.70;;;6.73;;
20101;SDS011;10210;52.284;9.892;2023-08-30T12:06:44;12.10;;;6.17;;
20101;SDS011;10210;52.284;9.892;2023-08-30T12:09:19;15.10;;;7.53;;
20101;SDS011;10210;52.284;9.892;2023-08-30T12:11:50;13.63;;;6.93;;
20101;SDS011;10210;52.284;9.892;2023-08-30T12:14:16;13.67;;;6.67;;
20101;SDS011;10210;52.284;9.892;2023-08-30T12:16:42;13.67;;;5.83;;
20101;SDS011;10210;52.284;9.892;2023-08-30T12:19:11;13.53;;;5.87;;
20101;SDS011;10210;52.284;9.892;2023-08-30T12:21:44;12.30;;;6.23;;
20101;SDS011;10210;52.284;9.892;2023-08-30T12:24:12;12.87;;;6.40;;
20101;SDS011;10210;52.284;9.892;2023-08-30T12:26:38;12.87;;;6.27;;
20101;SDS011;10210;52.284;9.892;2023-08-30T12:29:06;12.53;;;5.50;;
20101;SDS011;10210;52.284;9.892;2023-08-30T12:31:32;14.20;;;5.37;;
20101;SDS011;10210;52.284;9.892;2023-08-30T12:33:58;11.03;;;4.77;;
20101;SDS011;10210;52.284;9.892;2023-08-30T12:36:24;10.67;;;4.93;;
20101;SDS011;10210;52.284;9.892;2023-08-30T12:38:50;10.60;;;4.77;;
20101;SDS011;10210;52.284;9.892;2023-08-30T12:41:16;11.10;;;5.07;;
20101;SDS011;10210;52.284;9.892;2023-08-30T12:43:42;10.63;;;5.03;;
20101;SDS011;10210;52.284;9.892;2023-08-30T12:46:07;12.00;;;5.67;;
20101;SDS011;10210;52.284;9.892;2023-08-30T12:48:33;13.27;;;6.07;;
20101;SDS011;10210;52.284;9.892;2023-08-30T12:50:59;12.30;;;5.70;;
20101;SDS011;10210;52.284;9.892;2023-08-30T12:53:24;12.50;;;6.00;;
20101;SDS011;10210;52.284;9.892;2023-08-30T12:55:50;11.50;;;5.93;;
20101;SDS011;10210;52.284;9.892;2023-08-30T12:58:15;12.87;;;5.70;;
20101;SDS011;10210;52.284;9.892;2023-08-30T13:00:41;13.77;;;5.70;;
20101;SDS011;10210;52.284;9.892;2023-08-30T13:03:07;11.87;;;6.10;;
20101;SDS011;10210;52.284;9.892;2023-08-30T13:05:33;10.97;;;5.37;;
20101;SDS011;10210;52.284;9.892;2023-08-30T13:07:59;12.17;;;5.87;;
20101;SDS011;10210;52.284;9.892;2023-08-30T13:10:25;13.23;;;6.37;;
20101;SDS011;10210;52.284;9.892;2023-08-30T13:12:51;11.60;;;5.20;;
20101;SDS011;10210;52.284;9.892;2023-08-30T13:15:17;11.43;;;4.60;;
20101;SDS011;10210;52.284;9.892;2023-08-30T13:17:43;12.50;;;4.80;;
20101;SDS011;10210;52.284;9.892;2023-08-30T13:20:09;10.70;;;4.00;;
20101;SDS011;10210;52.284;9.892;2023-08-30T13:22:36;11.17;;;4.60;;
20101;SDS011;10210;52.284;9.892;2023-08-30T13:25:02;10.50;;;4.70;;
20101;SDS011;10210;52.284;9.892;2023-08-30T13:27:31;10.33;;;4.50;;
20101;SDS011;10210;52.284;9.892;2023-08-30T13:29:56;9.47;;;3.77;;
20101;SDS011;10210;52.284;9.892;2023-08-30T13:32:22;10.20;;;4.47;;
20101;SDS011;10210;52.284;9.892;2023-08-30T13:34:49;10.90;;;4.47;;
20101;SDS011;10210;52.284;9.892;2023-08-30T13:37:16;9.80;;;4.20;;
20101;SDS011;10210;52.284;9.892;2023-08-30T13:39:41;11.63;;;5.00;;
20101;SDS011;10210;52.284;9.892;2023-08-30T13:42:07;9.47;;;4.33;;
20101;SDS011;10210;52.284;9.892;2023-08-30T13:44:33;9.77;;;4.00;;
20101;SDS011;10210;52.284;9.892;2023-08-30T13:47:05;13.60;;;3.63;;
20101;SDS011;10210;52.284;9.892;2023-08-30T13:49:31;8.83;;;3.57;;
20101;SDS011;10210;52.284;9.892;2023-08-30T13:51:57;8.57;;;3.30;;
20101;SDS011;10210;52.284;9.892;2023-08-30T13:54:23;9.33;;;3.50;;
20101;SDS011;10210;52.284;9.892;2023-08-30T13:56:49;10.40;;;3.50;;
20101;SDS011;10210;52.284;9.892;2023-08-30T13:59:15;8.50;;;3.40;;
20101;SDS011;10210;52.284;9.892;2023-08-30T14:01:41;10.20;;;4.00;;
20101;SDS011;10210;52.284;9.892;2023-08-30T14:04:07;9.33;;;3.70;;
20101;SDS011;10210;52.284;9.892;2023-08-30T14:06:34;6.67;;;3.10;;
20101;SDS011;10210;52.284;9.892;2023-08-30T14:09:00;8.07;;;3.40;;
20101;SDS011;10210;52.284;9.892;2023-08-30T14:11:27;7.10;;;3.10;;
20101;SDS011;10210;52.284;9.892;2023-08-30T14:13:52;7.63;;;3.30;;
20101;SDS011;10210;52.284;9.892;2023-08-30T14:16:18;8.87;;;3.37;;
20101;SDS011;10210;52.284;9.892;2023-08-30T14:18:44;8.90;;;3.83;;
20101;SDS011;10210;52.284;9.892;2023-08-30T14:21:09;10.40;;;4.70;;
20101;SDS011;10210;52.284;9.892;2023-08-30T14:23:35;12.13;;;4.90;;
20101;SDS011;10210;52.284;9.892;2023-08-30T14:26:02;11.10;;;4.60;;
20101;SDS011;10210;52.284;9.892;2023-08-30T14:28:39;10.93;;;4.83;;
20101;SDS011;10210;52.284;9.892;2023-08-30T14:31:08;11.77;;;4.47;;
20101;SDS011;10210;52.284;9.892;2023-08-30T14:33:35;9.70;;;4.13;;
20101;SDS011;10210;52.284;9.892;2023-08-30T14:36:02;13.27;;;4.60;;
20101;SDS011;10210;52.284;9.892;2023-08-30T14:38:33;12.50;;;4.60;;
20101;SDS011;10210;52.284;9.892;2023-08-30T14:41:00;10.30;;;4.30;;
20101;SDS011;10210;52.284;9.892;2023-08-30T14:43:27;9.50;;;4.50;;
20101;SDS011;10210;52.284;9.892;2023-08-30T14:46:03;9.13;;;4.23;;
20101;SDS011;10210;52.284;9.892;2023-08-30T14:48:31;9.70;;;4.07;;
20101;SDS011;10210;52.284;9.892;2023-08-30T14:50:58;7.83;;;3.63;;
20101;SDS011;10210;52.284;9.892;2023-08-30T14:53:24;8.83;;;3.33;;